sensor_id;sensor_type;location;lat;lon;timestamp;P1;durP1;ratioP1;P2;durP2;ratioP2
51298;SDS011;37382;45.192;9.790;2023-04-25T04:04:58;5.05;;;2.72;;
51298;SDS011;37382;45.192;9.790;2023-04-25T04:07:26;4.05;;;2.30;;
51298;SDS011;37382;45.192;9.790;2023-04-25T04:09:57;3.13;;;2.72;;
51298;SDS011;37382;45.192;9.790;2023-04-25T04:12:30;6.38;;;2.80;;
51298;SDS011;37382;45.192;9.790;2023-04-25T04:14:58;13.93;;;3.05;;
51298;SDS011;37382;45.192;9.790;2023-04-25T04:17:25;13.20;;;2.40;;
51298;SDS011;37382;45.192;9.790;2023-04-25T04:19:53;16.10;;;3.38;;
51298;SDS011;37382;45.192;9.790;2023-04-25T04:22:22;5.25;;;2.83;;
51298;SDS011;37382;45.192;9.790;2023-04-25T04:24:54;3.20;;;2.83;;
51298;SDS011;37382;45.192;9.790;2023-04-25T04:27:39;4.90;;;3.00;;
51298;SDS011;37382;45.192;9.790;2023-04-25T04:32:57;6.63;;;3.08;;
51298;SDS011;37382;45.192;9.790;2023-04-25T04:35:25;3.38;;;2.55;;
51298;SDS011;37382;45.192;9.790;2023-04-25T04:37:53;3.88;;;3.20;;
51298;SDS011;37382;45.192;9.790;2023-04-25T04:40:22;6.45;;;3.03;;
51298;SDS011;37382;45.192;9.790;2023-04-25T04:43:10;3.45;;;2.92;;
51298;SDS011;37382;45.192;9.790;2023-04-25T04:46:03;3.83;;;2.95;;
51298;SDS011;37382;45.192;9.790;2023-04-25T04:48:31;4.63;;;2.90;;
51298;SDS011;37382;45.192;9.790;2023-04-25T04:51:20;5.68;;;3.10;;
51298;SDS011;37382;45.192;9.790;2023-04-25T04:53:53;4.65;;;2.90;;
51298;SDS011;37382;45.192;9.790;2023-04-25T04:56:48;3.10;;;2.80;;
51298;SDS011;37382;45.192;9.790;2023-04-25T04:59:28;5.70;;;2.92;;
51298;SDS011;37382;45.192;9.790;2023-04-25T05:02:26;7.43;;;3.15;;
51298;SDS011;37382;45.192;9.790;2023-04-25T05:05:22;6.88;;;3.10;;
51298;SDS011;37382;45.192;9.790;2023-04-25T05:08:19;9.13;;;2.85;;
51298;SDS011;37382;45.192;9.790;2023-04-25T05:11:13;7.80;;;3.10;;
51298;SDS011;37382;45.192;9.790;2023-04-25T05:13:59;5.90;;;3.15;;
51298;SDS011;37382;45.192;9.790;2023-04-25T05:16:45;4.57;;;3.42;;
51298;SDS011;37382;45.192;9.790;2023-04-25T05:19:39;4.38;;;2.92;;
51298;SDS011;37382;45.192;9.790;2023-04-25T05:22:38;4.15;;;3.13;;
51298;SDS011;37382;45.192;9.790;2023-04-25T05:25:21;3.00;;;2.72;;
51298;SDS011;37382;45.192;9.790;2023-04-25T05:28:15;7.22;;;3.42;;
51298;SDS011;37382;45.192;9.790;2023-04-25T05:30:59;3.67;;;3.35;;
51298;SDS011;37382;45.192;9.790;2023-04-25T05:33:30;4.78;;;3.67;;
51298;SDS011;37382;45.192;9.790;2023-04-25T05:36:00;3.83;;;3.28;;
51298;SDS011;37382;45.192;9.790;2023-04-25T05:38:29;8.07;;;3.35;;
51298;SDS011;37382;45.192;9.790;2023-04-25T05:41:06;3.75;;;3.00;;
51298;SDS011;37382;45.192;9.790;2023-04-25T05:44:06;4.75;;;3.22;;
51298;SDS011;37382;45.192;9.790;2023-04-25T05:46:40;9.00;;;3.50;;
51298;SDS011;37382;45.192;9.790;2023-04-25T05:49:31;9.70;;;3.42;;
51298;SDS011;37382;45.192;9.790;2023-04-25T05:52:17;9.57;;;3.15;;
51298;SDS011;37382;45.192;9.790;2023-04-25T05:54:54;5.88;;;2.63;;
51298;SDS011;37382;45.192;9.790;2023-04-25T05:57:23;2.95;;;2.35;;
51298;SDS011;37382;45.192;9.790;2023-04-25T05:59:54;5.45;;;2.50;;
51298;SDS011;37382;45.192;9.790;2023-04-25T06:02:25;5.73;;;2.67;;
51298;SDS011;37382;45.192;9.790;2023-04-25T06:04:53;5.68;;;3.15;;
51298;SDS011;37382;45.192;9.790;2023-04-25T06:07:24;4.88;;;2.88;;
51298;SDS011;37382;45.192;9.790;2023-04-25T06:09:51;3.33;;;3.03;;
51298;SDS011;37382;45.192;9.790;2023-04-25T06:12:20;5.15;;;3.30;;
51298;SDS011;37382;45.192;9.790;2023-04-25T06:14:49;7.25;;;3.40;;
51298;SDS011;37382;45.192;9.790;2023-04-25T06:17:16;7.15;;;3.30;;
51298;SDS011;37382;45.192;9.790;2023-04-25T06:19:44;5.05;;;3.58;;
51298;SDS011;37382;45.192;9.790;2023-04-25T06:22:12;8.75;;;3.50;;
51298;SDS011;37382;45.192;9.790;2023-04-25T06:24:40;9.57;;;3.55;;
51298;SDS011;37382;45.192;9.790;2023-04-25T06:27:08;7.75;;;2.60;;
51298;SDS011;37382;45.192;9.790;2023-04-25T06:29:35;2.90;;;2.42;;
51298;SDS011;37382;45.192;9.790;2023-04-25T06:32:03;5.05;;;2.40;;
51298;SDS011;37382;45.192;9.790;2023-04-25T06:34:32;3.38;;;2.35;;
51298;SDS011;37382;45.192;9.790;2023-04-25T06:36:59;8.05;;;2.40;;
51298;SDS011;37382;45.192;9.790;2023-04-25T06:39:27;3.33;;;2.60;;
51298;SDS011;37382;45.192;9.790;2023-04-25T06:41:55;7.80;;;2.30;;
51298;SDS011;37382;45.192;9.790;2023-04-25T06:44:40;6.82;;;2.70;;
51298;SDS011;37382;45.192;9.790;2023-04-25T06:47:10;2.85;;;2.42;;
51298;SDS011;37382;45.192;9.790;2023-04-25T06:49:38;5.05;;;2.22;;
51298;SDS011;37382;45.192;9.790;2023-04-25T06:52:05;6.22;;;2.50;;
51298;SDS011;37382;45.192;9.790;2023-04-25T06:54:33;4.32;;;2.20;;
51298;SDS011;37382;45.192;9.790;2023-04-25T06:57:18;10.48;;;2.72;;
51298;SDS011;37382;45.192;9.790;2023-04-25T06:59:46;3.22;;;2.58;;
51298;SDS011;37382;45.192;9.790;2023-04-25T07:02:13;7.03;;;2.67;;
51298;SDS011;37382;45.192;9.790;2023-04-25T07:04:42;2.97;;;2.40;;
51298;SDS011;37382;45.192;9.790;2023-04-25T07:07:10;6.15;;;2.97;;
51298;SDS011;37382;45.192;9.790;2023-04-25T07:09:45;5.00;;;2.42;;
51298;SDS011;37382;45.192;9.790;2023-04-25T07:12:12;4.15;;;2.80;;
51298;SDS011;37382;45.192;9.790;2023-04-25T07:14:40;6.68;;;2.60;;
51298;SDS011;37382;45.192;9.790;2023-04-25T07:17:09;5.65;;;2.42;;
51298;SDS011;37382;45.192;9.790;2023-04-25T07:19:37;4.07;;;2.67;;
51298;SDS011;37382;45.192;9.790;2023-04-25T07:22:08;4.28;;;2.50;;
51298;SDS011;37382;45.192;9.790;2023-04-25T07:24:38;6.05;;;2.90;;
51298;SDS011;37382;45.192;9.790;2023-04-25T07:27:07;6.85;;;2.40;;
51298;SDS011;37382;45.192;9.790;2023-04-25T07:29:44;4.93;;;2.50;;
51298;SDS011;37382;45.192;9.790;2023-04-25T07:32:12;5.57;;;3.45;;
51298;SDS011;37382;45.192;9.790;2023-04-25T07:34:42;4.90;;;2.47;;
51298;SDS011;37382;45.192;9.790;2023-04-25T07:37:10;5.53;;;2.40;;
51298;SDS011;37382;45.192;9.790;2023-04-25T07:39:50;3.22;;;2.22;;
51298;SDS011;37382;45.192;9.790;2023-04-25T07:42:18;3.97;;;1.90;;
51298;SDS011;37382;45.192;9.790;2023-04-25T07:44:45;3.65;;;1.80;;
51298;SDS011;37382;45.192;9.790;2023-04-25T07:47:15;5.97;;;1.80;;
51298;SDS011;37382;45.192;9.790;2023-04-25T07:49:43;3.95;;;1.95;;
51298;SDS011;37382;45.192;9.790;2023-04-25T07:52:11;3.10;;;1.75;;
51298;SDS011;37382;45.192;9.790;2023-04-25T07:54:44;4.15;;;1.70;;
51298;SDS011;37382;45.192;9.790;2023-04-25T07:57:17;5.53;;;1.55;;
51298;SDS011;37382;45.192;9.790;2023-04-25T07:59:48;2.85;;;1.40;;
51298;SDS011;37382;45.192;9.790;2023-04-25T08:02:17;5.55;;;1.33;;
51298;SDS011;37382;45.192;9.790;2023-04-25T08:04:45;2.85;;;1.30;;
51298;SDS011;37382;45.192;9.790;2023-04-25T08:07:16;2.83;;;1.30;;
51298;SDS011;37382;45.192;9.790;2023-04-25T08:09:49;5.93;;;1.52;;
51298;SDS011;37382;45.192;9.790;2023-04-25T08:12:24;3.25;;;1.50;;
51298;SDS011;37382;45.192;9.790;2023-04-25T08:14:52;1.67;;;1.30;;
51298;SDS011;37382;45.192;9.790;2023-04-25T08:17:21;1.83;;;1.23;;
51298;SDS011;37382;45.192;9.790;2023-04-25T08:19:49;2.08;;;1.30;;
51298;SDS011;37382;45.192;9.790;2023-04-25T08:22:24;1.35;;;1.20;;
51298;SDS011;37382;45.192;9.790;2023-04-25T08:25:11;2.78;;;1.90;;
51298;SDS011;37382;45.192;9.790;2023-04-25T08:27:40;1.63;;;1.20;;
51298;SDS011;37382;45.192;9.790;2023-04-25T08:30:09;16.95;;;1.58;;
51298;SDS011;37382;45.192;9.790;2023-04-25T08:32:38;1.85;;;1.10;;
51298;SDS011;37382;45.192;9.790;2023-04-25T08:35:24;2.70;;;1.48;;
51298;SDS011;37382;45.192;9.790;2023-04-25T08:37:52;1.60;;;1.10;;
51298;SDS011;37382;45.192;9.790;2023-04-25T08:40:20;1.63;;;1.30;;
51298;SDS011;37382;45.192;9.790;2023-04-25T08:43:07;1.73;;;1.30;;
51298;SDS011;37382;45.192;9.790;2023-04-25T08:45:39;3.38;;;1.23;;
51298;SDS011;37382;45.192;9.790;2023-04-25T08:48:16;1.55;;;1.05;;
51298;SDS011;37382;45.192;9.790;2023-04-25T08:50:47;1.75;;;1.00;;
51298;SDS011;37382;45.192;9.790;2023-04-25T08:53:26;5.80;;;1.20;;
51298;SDS011;37382;45.192;9.790;2023-04-25T08:55:58;2.70;;;1.20;;
51298;SDS011;37382;45.192;9.790;2023-04-25T08:58:29;1.17;;;0.95;;
51298;SDS011;37382;45.192;9.790;2023-04-25T09:00:58;6.22;;;1.42;;
51298;SDS011;37382;45.192;9.790;2023-04-25T09:03:30;1.80;;;1.20;;
51298;SDS011;37382;45.192;9.790;2023-04-25T09:05:58;1.48;;;0.93;;
51298;SDS011;37382;45.192;9.790;2023-04-25T09:08:26;2.35;;;1.10;;
51298;SDS011;37382;45.192;9.790;2023-04-25T09:10:54;3.45;;;1.23;;
51298;SDS011;37382;45.192;9.790;2023-04-25T09:13:26;2.83;;;1.13;;
51298;SDS011;37382;45.192;9.790;2023-04-25T09:16:20;2.75;;;1.00;;
51298;SDS011;37382;45.192;9.790;2023-04-25T09:19:19;2.17;;;1.10;;
51298;SDS011;37382;45.192;9.790;2023-04-25T09:22:12;2.17;;;1.10;;
51298;SDS011;37382;45.192;9.790;2023-04-25T09:24:43;7.38;;;1.38;;
51298;SDS011;37382;45.192;9.790;2023-04-25T09:27:17;2.15;;;1.23;;
51298;SDS011;37382;45.192;9.790;2023-04-25T09:29:49;1.77;;;0.95;;
51298;SDS011;37382;45.192;9.790;2023-04-25T09:32:26;1.70;;;1.08;;
51298;SDS011;37382;45.192;9.790;2023-04-25T09:34:56;2.08;;;1.27;;
51298;SDS011;37382;45.192;9.790;2023-04-25T09:37:28;1.00;;;0.80;;
51298;SDS011;37382;45.192;9.790;2023-04-25T09:40:15;5.78;;;0.80;;
51298;SDS011;37382;45.192;9.790;2023-04-25T09:43:00;1.63;;;0.90;;
51298;SDS011;37382;45.192;9.790;2023-04-25T09:45:29;1.83;;;0.90;;
51298;SDS011;37382;45.192;9.790;2023-04-25T09:48:02;2.40;;;0.90;;
51298;SDS011;37382;45.192;9.790;2023-04-25T09:50:36;1.63;;;0.77;;
51298;SDS011;37382;45.192;9.790;2023-04-25T09:53:08;1.02;;;0.77;;
51298;SDS011;37382;45.192;9.790;2023-04-25T09:55:52;1.35;;;0.63;;
51298;SDS011;37382;45.192;9.790;2023-04-25T09:58:19;2.50;;;0.50;;
51298;SDS011;37382;45.192;9.790;2023-04-25T10:00:47;0.90;;;0.68;;
51298;SDS011;37382;45.192;9.790;2023-04-25T10:03:30;0.98;;;0.60;;
51298;SDS011;37382;45.192;9.790;2023-04-25T10:06:23;4.43;;;0.57;;
51298;SDS011;37382;45.192;9.790;2023-04-25T10:08:53;0.80;;;0.57;;
51298;SDS011;37382;45.192;9.790;2023-04-25T10:11:23;1.85;;;0.60;;
51298;SDS011;37382;45.192;9.790;2023-04-25T10:13:53;1.47;;;0.53;;
51298;SDS011;37382;45.192;9.790;2023-04-25T10:16:21;2.15;;;0.60;;
51298;SDS011;37382;45.192;9.790;2023-04-25T10:18:49;0.60;;;0.52;;
51298;SDS011;37382;45.192;9.790;2023-04-25T10:21:17;0.50;;;0.50;;
51298;SDS011;37382;45.192;9.790;2023-04-25T10:23:45;5.30;;;0.52;;
51298;SDS011;37382;45.192;9.790;2023-04-25T10:26:12;0.52;;;0.45;;
51298;SDS011;37382;45.192;9.790;2023-04-25T10:29:01;0.63;;;0.47;;
51298;SDS011;37382;45.192;9.790;2023-04-25T10:31:30;1.25;;;0.40;;
51298;SDS011;37382;45.192;9.790;2023-04-25T10:33:59;0.43;;;0.40;;
51298;SDS011;37382;45.192;9.790;2023-04-25T10:36:30;0.98;;;0.60;;
51298;SDS011;37382;45.192;9.790;2023-04-25T10:39:02;1.15;;;0.45;;
51298;SDS011;37382;45.192;9.790;2023-04-25T10:41:47;2.85;;;0.70;;
51298;SDS011;37382;45.192;9.790;2023-04-25T10:44:22;0.55;;;0.40;;
51298;SDS011;37382;45.192;9.790;2023-04-25T10:46:50;3.95;;;0.80;;
51298;SDS011;37382;45.192;9.790;2023-04-25T10:49:31;1.67;;;0.73;;
51298;SDS011;37382;45.192;9.790;2023-04-25T10:52:11;1.60;;;0.50;;
51298;SDS011;37382;45.192;9.790;2023-04-25T10:54:43;2.00;;;0.47;;
51298;SDS011;37382;45.192;9.790;2023-04-25T10:57:27;1.60;;;0.60;;
51298;SDS011;37382;45.192;9.790;2023-04-25T11:00:01;2.53;;;0.80;;
51298;SDS011;37382;45.192;9.790;2023-04-25T11:02:43;1.17;;;0.50;;
51298;SDS011;37382;45.192;9.790;2023-04-25T11:05:26;1.27;;;0.50;;
51298;SDS011;37382;45.192;9.790;2023-04-25T11:08:00;3.15;;;0.50;;
51298;SDS011;37382;45.192;9.790;2023-04-25T11:10:34;0.85;;;0.60;;
51298;SDS011;37382;45.192;9.790;2023-04-25T11:13:02;2.72;;;0.88;;
51298;SDS011;37382;45.192;9.790;2023-04-25T11:15:31;6.57;;;0.70;;
51298;SDS011;37382;45.192;9.790;2023-04-25T11:17:58;3.40;;;0.90;;
51298;SDS011;37382;45.192;9.790;2023-04-25T11:20:26;1.90;;;0.80;;
51298;SDS011;37382;45.192;9.790;2023-04-25T11:22:57;4.65;;;0.80;;
51298;SDS011;37382;45.192;9.790;2023-04-25T11:25:26;2.40;;;1.00;;
51298;SDS011;37382;45.192;9.790;2023-04-25T11:27:54;2.25;;;0.88;;
51298;SDS011;37382;45.192;9.790;2023-04-25T11:30:24;2.38;;;0.77;;
51298;SDS011;37382;45.192;9.790;2023-04-25T11:32:53;3.40;;;1.42;;
51298;SDS011;37382;45.192;9.790;2023-04-25T11:35:21;3.53;;;0.98;;
51298;SDS011;37382;45.192;9.790;2023-04-25T11:37:50;1.83;;;0.90;;
51298;SDS011;37382;45.192;9.790;2023-04-25T11:40:18;2.92;;;1.00;;
51298;SDS011;37382;45.192;9.790;2023-04-25T11:42:46;2.33;;;0.80;;
51298;SDS011;37382;45.192;9.790;2023-04-25T11:45:14;6.13;;;0.93;;
51298;SDS011;37382;45.192;9.790;2023-04-25T11:47:42;1.50;;;1.00;;
51298;SDS011;37382;45.192;9.790;2023-04-25T11:50:10;4.97;;;1.02;;
51298;SDS011;37382;45.192;9.790;2023-04-25T11:52:42;5.45;;;1.23;;
51298;SDS011;37382;45.192;9.790;2023-04-25T11:55:14;2.70;;;1.05;;
51298;SDS011;37382;45.192;9.790;2023-04-25T11:57:44;2.17;;;1.00;;
51298;SDS011;37382;45.192;9.790;2023-04-25T12:00:16;1.15;;;0.80;;
51298;SDS011;37382;45.192;9.790;2023-04-25T12:02:47;2.00;;;1.00;;
51298;SDS011;37382;45.192;9.790;2023-04-25T12:05:20;1.90;;;1.00;;
51298;SDS011;37382;45.192;9.790;2023-04-25T12:07:53;4.45;;;1.20;;
51298;SDS011;37382;45.192;9.790;2023-04-25T12:10:21;1.45;;;0.80;;
51298;SDS011;37382;45.192;9.790;2023-04-25T12:12:52;3.65;;;1.02;;
51298;SDS011;37382;45.192;9.790;2023-04-25T12:15:23;1.17;;;0.82;;
51298;SDS011;37382;45.192;9.790;2023-04-25T12:17:52;3.92;;;0.90;;
51298;SDS011;37382;45.192;9.790;2023-04-25T12:20:24;1.33;;;0.70;;
51298;SDS011;37382;45.192;9.790;2023-04-25T12:22:52;3.60;;;1.10;;
51298;SDS011;37382;45.192;9.790;2023-04-25T12:25:36;7.57;;;1.08;;
51298;SDS011;37382;45.192;9.790;2023-04-25T12:28:09;2.38;;;1.00;;
51298;SDS011;37382;45.192;9.790;2023-04-25T12:33:29;4.78;;;0.80;;
51298;SDS011;37382;45.192;9.790;2023-04-25T12:36:02;5.53;;;1.58;;
51298;SDS011;37382;45.192;9.790;2023-04-25T12:38:40;2.80;;;1.10;;
51298;SDS011;37382;45.192;9.790;2023-04-25T12:41:09;4.22;;;0.90;;
51298;SDS011;37382;45.192;9.790;2023-04-25T12:43:37;1.98;;;0.75;;
51298;SDS011;37382;45.192;9.790;2023-04-25T12:46:05;2.13;;;0.82;;
51298;SDS011;37382;45.192;9.790;2023-04-25T12:48:33;16.65;;;1.00;;
51298;SDS011;37382;45.192;9.790;2023-04-25T12:51:01;2.25;;;1.00;;
51298;SDS011;37382;45.192;9.790;2023-04-25T12:53:29;4.70;;;1.00;;
51298;SDS011;37382;45.192;9.790;2023-04-25T12:55:59;4.82;;;1.08;;
51298;SDS011;37382;45.192;9.790;2023-04-25T12:58:28;2.75;;;0.65;;
51298;SDS011;37382;45.192;9.790;2023-04-25T13:00:56;2.90;;;1.10;;
51298;SDS011;37382;45.192;9.790;2023-04-25T13:03:23;2.45;;;1.05;;
51298;SDS011;37382;45.192;9.790;2023-04-25T13:05:53;1.48;;;0.98;;
51298;SDS011;37382;45.192;9.790;2023-04-25T13:08:21;5.18;;;1.23;;
51298;SDS011;37382;45.192;9.790;2023-04-25T13:10:48;2.85;;;1.00;;
51298;SDS011;37382;45.192;9.790;2023-04-25T13:13:15;3.03;;;0.95;;
51298;SDS011;37382;45.192;9.790;2023-04-25T13:15:43;1.95;;;0.88;;
51298;SDS011;37382;45.192;9.790;2023-04-25T13:18:12;2.28;;;0.80;;
51298;SDS011;37382;45.192;9.790;2023-04-25T13:20:40;2.20;;;1.00;;
51298;SDS011;37382;45.192;9.790;2023-04-25T13:23:08;2.40;;;0.88;;
51298;SDS011;37382;45.192;9.790;2023-04-25T13:25:36;2.63;;;1.02;;
51298;SDS011;37382;45.192;9.790;2023-04-25T13:28:04;2.78;;;1.05;;
51298;SDS011;37382;45.192;9.790;2023-04-25T13:30:31;3.10;;;0.90;;
51298;SDS011;37382;45.192;9.790;2023-04-25T13:32:59;3.90;;;0.90;;
51298;SDS011;37382;45.192;9.790;2023-04-25T13:37:57;2.78;;;1.40;;
51298;SDS011;37382;45.192;9.790;2023-04-25T13:40:25;2.60;;;1.35;;
51298;SDS011;37382;45.192;9.790;2023-04-25T13:42:54;2.95;;;1.20;;
51298;SDS011;37382;45.192;9.790;2023-04-25T13:45:22;2.78;;;1.08;;
51298;SDS011;37382;45.192;9.790;2023-04-25T13:47:49;4.95;;;1.10;;
51298;SDS011;37382;45.192;9.790;2023-04-25T13:50:17;2.97;;;1.10;;
51298;SDS011;37382;45.192;9.790;2023-04-25T13:52:44;3.53;;;1.20;;
51298;SDS011;37382;45.192;9.790;2023-04-25T13:55:12;10.20;;;1.55;;
51298;SDS011;37382;45.192;9.790;2023-04-25T13:57:40;3.95;;;1.38;;
51298;SDS011;37382;45.192;9.790;2023-04-25T14:00:07;3.00;;;1.60;;
51298;SDS011;37382;45.192;9.790;2023-04-25T14:02:35;7.57;;;2.30;;
51298;SDS011;37382;45.192;9.790;2023-04-25T14:05:04;14.00;;;1.80;;
51298;SDS011;37382;45.192;9.790;2023-04-25T14:07:33;1.05;;;0.70;;
51298;SDS011;37382;45.192;9.790;2023-04-25T14:10:02;6.53;;;1.00;;
51298;SDS011;37382;45.192;9.790;2023-04-25T14:12:31;41.42;;;1.70;;
51298;SDS011;37382;45.192;9.790;2023-04-25T14:14:59;26.35;;;1.33;;
51298;SDS011;37382;45.192;9.790;2023-04-25T14:17:27;23.25;;;1.20;;
51298;SDS011;37382;45.192;9.790;2023-04-25T14:19:54;6.35;;;0.85;;
51298;SDS011;37382;45.192;9.790;2023-04-25T14:22:21;2.00;;;0.70;;
51298;SDS011;37382;45.192;9.790;2023-04-25T14:24:49;5.70;;;0.70;;
51298;SDS011;37382;45.192;9.790;2023-04-25T14:27:17;8.27;;;0.60;;
51298;SDS011;37382;45.192;9.790;2023-04-25T14:29:44;4.38;;;0.50;;
51298;SDS011;37382;45.192;9.790;2023-04-25T14:32:12;1.73;;;0.40;;
51298;SDS011;37382;45.192;9.790;2023-04-25T14:34:40;1.80;;;0.68;;
51298;SDS011;37382;45.192;9.790;2023-04-25T14:37:08;1.00;;;0.65;;
51298;SDS011;37382;45.192;9.790;2023-04-25T14:39:35;6.97;;;3.88;;
51298;SDS011;37382;45.192;9.790;2023-04-25T14:42:03;6.70;;;4.20;;
51298;SDS011;37382;45.192;9.790;2023-04-25T14:44:31;3.75;;;1.98;;
51298;SDS011;37382;45.192;9.790;2023-04-25T14:46:58;6.78;;;0.85;;
51298;SDS011;37382;45.192;9.790;2023-04-25T14:49:26;1.65;;;0.50;;
51298;SDS011;37382;45.192;9.790;2023-04-25T14:51:55;0.55;;;0.50;;
51298;SDS011;37382;45.192;9.790;2023-04-25T14:54:23;2.25;;;0.73;;
51298;SDS011;37382;45.192;9.790;2023-04-25T14:56:51;4.20;;;0.55;;
51298;SDS011;37382;45.192;9.790;2023-04-25T14:59:18;1.50;;;0.65;;
51298;SDS011;37382;45.192;9.790;2023-04-25T15:01:47;2.00;;;0.60;;
51298;SDS011;37382;45.192;9.790;2023-04-25T15:04:15;2.88;;;0.63;;
51298;SDS011;37382;45.192;9.790;2023-04-25T15:06:44;3.00;;;2.30;;
51298;SDS011;37382;45.192;9.790;2023-04-25T15:09:11;1.75;;;0.70;;
51298;SDS011;37382;45.192;9.790;2023-04-25T15:11:39;1.33;;;0.63;;
51298;SDS011;37382;45.192;9.790;2023-04-25T15:14:07;4.90;;;1.90;;
51298;SDS011;37382;45.192;9.790;2023-04-25T15:16:34;1.20;;;1.00;;
51298;SDS011;37382;45.192;9.790;2023-04-25T15:19:02;1.50;;;0.52;;
51298;SDS011;37382;45.192;9.790;2023-04-25T15:21:32;1.15;;;0.82;;
51298;SDS011;37382;45.192;9.790;2023-04-25T15:24:00;2.08;;;1.10;;
51298;SDS011;37382;45.192;9.790;2023-04-25T15:26:28;1.35;;;0.80;;
51298;SDS011;37382;45.192;9.790;2023-04-25T15:28:55;1.42;;;0.63;;
51298;SDS011;37382;45.192;9.790;2023-04-25T15:31:23;1.17;;;0.70;;
51298;SDS011;37382;45.192;9.790;2023-04-25T15:33:50;2.05;;;0.90;;
51298;SDS011;37382;45.192;9.790;2023-04-25T15:36:19;1.20;;;0.73;;
51298;SDS011;37382;45.192;9.790;2023-04-25T15:38:48;1.48;;;0.52;;
51298;SDS011;37382;45.192;9.790;2023-04-25T15:41:16;1.00;;;0.50;;
51298;SDS011;37382;45.192;9.790;2023-04-25T15:43:46;1.27;;;0.50;;
51298;SDS011;37382;45.192;9.790;2023-04-25T15:46:15;1.55;;;0.63;;
51298;SDS011;37382;45.192;9.790;2023-04-25T15:48:42;2.28;;;0.93;;
51298;SDS011;37382;45.192;9.790;2023-04-25T15:51:10;1.80;;;0.68;;
51298;SDS011;37382;45.192;9.790;2023-04-25T15:53:38;0.80;;;0.60;;
51298;SDS011;37382;45.192;9.790;2023-04-25T15:56:06;1.58;;;0.52;;
51298;SDS011;37382;45.192;9.790;2023-04-25T15:58:33;7.57;;;0.80;;
51298;SDS011;37382;45.192;9.790;2023-04-25T16:01:02;2.28;;;0.90;;
51298;SDS011;37382;45.192;9.790;2023-04-25T16:03:31;1.77;;;0.90;;
51298;SDS011;37382;45.192;9.790;2023-04-25T16:06:02;4.85;;;0.80;;
51298;SDS011;37382;45.192;9.790;2023-04-25T16:08:31;2.25;;;0.60;;
51298;SDS011;37382;45.192;9.790;2023-04-25T16:11:01;2.40;;;0.80;;
51298;SDS011;37382;45.192;9.790;2023-04-25T16:13:29;1.20;;;0.60;;
51298;SDS011;37382;45.192;9.790;2023-04-25T16:15:57;2.90;;;0.60;;
51298;SDS011;37382;45.192;9.790;2023-04-25T16:18:25;2.15;;;0.50;;
51298;SDS011;37382;45.192;9.790;2023-04-25T16:20:52;1.40;;;0.50;;
51298;SDS011;37382;45.192;9.790;2023-04-25T16:23:21;1.83;;;0.52;;
51298;SDS011;37382;45.192;9.790;2023-04-25T16:25:48;1.15;;;0.50;;
51298;SDS011;37382;45.192;9.790;2023-04-25T16:28:16;1.50;;;0.50;;
51298;SDS011;37382;45.192;9.790;2023-04-25T16:30:44;2.65;;;1.00;;
51298;SDS011;37382;45.192;9.790;2023-04-25T16:33:12;1.30;;;0.50;;
51298;SDS011;37382;45.192;9.790;2023-04-25T16:35:39;0.90;;;0.40;;
51298;SDS011;37382;45.192;9.790;2023-04-25T16:38:07;1.35;;;0.40;;
51298;SDS011;37382;45.192;9.790;2023-04-25T16:40:34;2.17;;;0.80;;
51298;SDS011;37382;45.192;9.790;2023-04-25T16:43:02;3.05;;;0.82;;
51298;SDS011;37382;45.192;9.790;2023-04-25T16:45:29;4.50;;;0.85;;
51298;SDS011;37382;45.192;9.790;2023-04-25T16:47:57;2.35;;;0.70;;
51298;SDS011;37382;45.192;9.790;2023-04-25T16:50:24;2.33;;;0.88;;
51298;SDS011;37382;45.192;9.790;2023-04-25T16:52:52;7.13;;;0.93;;
51298;SDS011;37382;45.192;9.790;2023-04-25T16:55:20;4.07;;;0.73;;
51298;SDS011;37382;45.192;9.790;2023-04-25T16:57:47;1.20;;;0.80;;
51298;SDS011;37382;45.192;9.790;2023-04-25T17:00:15;1.38;;;1.10;;
51298;SDS011;37382;45.192;9.790;2023-04-25T17:02:44;5.75;;;0.90;;
51298;SDS011;37382;45.192;9.790;2023-04-25T17:05:12;3.03;;;0.75;;
51298;SDS011;37382;45.192;9.790;2023-04-25T17:07:40;4.00;;;0.77;;
51298;SDS011;37382;45.192;9.790;2023-04-25T17:10:07;1.35;;;0.43;;
51298;SDS011;37382;45.192;9.790;2023-04-25T17:12:35;0.95;;;0.82;;
51298;SDS011;37382;45.192;9.790;2023-04-25T17:15:03;0.93;;;0.60;;
51298;SDS011;37382;45.192;9.790;2023-04-25T17:17:32;2.35;;;1.30;;
51298;SDS011;37382;45.192;9.790;2023-04-25T17:19:59;1.42;;;1.10;;
51298;SDS011;37382;45.192;9.790;2023-04-25T17:22:27;0.40;;;0.40;;
51298;SDS011;37382;45.192;9.790;2023-04-25T17:24:54;0.80;;;0.60;;
51298;SDS011;37382;45.192;9.790;2023-04-25T17:27:22;1.88;;;0.60;;
51298;SDS011;37382;45.192;9.790;2023-04-25T17:29:49;0.90;;;0.60;;
51298;SDS011;37382;45.192;9.790;2023-04-25T17:32:17;3.30;;;0.68;;
51298;SDS011;37382;45.192;9.790;2023-04-25T17:34:45;1.67;;;0.80;;
51298;SDS011;37382;45.192;9.790;2023-04-25T17:37:14;0.90;;;0.70;;
51298;SDS011;37382;45.192;9.790;2023-04-25T17:39:43;0.50;;;0.35;;
51298;SDS011;37382;45.192;9.790;2023-04-25T17:42:11;1.88;;;0.52;;
51298;SDS011;37382;45.192;9.790;2023-04-25T17:44:42;0.70;;;0.40;;
51298;SDS011;37382;45.192;9.790;2023-04-25T17:47:09;1.80;;;1.17;;
51298;SDS011;37382;45.192;9.790;2023-04-25T17:49:37;1.10;;;1.00;;
51298;SDS011;37382;45.192;9.790;2023-04-25T17:52:05;0.80;;;0.70;;
51298;SDS011;37382;45.192;9.790;2023-04-25T17:54:33;1.33;;;0.55;;
51298;SDS011;37382;45.192;9.790;2023-04-25T17:57:01;1.15;;;0.50;;
51298;SDS011;37382;45.192;9.790;2023-04-25T17:59:28;1.55;;;0.63;;
51298;SDS011;37382;45.192;9.790;2023-04-25T18:01:55;4.95;;;0.60;;
51298;SDS011;37382;45.192;9.790;2023-04-25T18:04:26;1.88;;;1.13;;
51298;SDS011;37382;45.192;9.790;2023-04-25T18:06:54;2.05;;;1.13;;
51298;SDS011;37382;45.192;9.790;2023-04-25T18:09:22;1.52;;;1.35;;
51298;SDS011;37382;45.192;9.790;2023-04-25T18:11:53;5.53;;;2.95;;
51298;SDS011;37382;45.192;9.790;2023-04-25T18:14:21;1.83;;;1.17;;
51298;SDS011;37382;45.192;9.790;2023-04-25T18:16:49;3.72;;;1.20;;
51298;SDS011;37382;45.192;9.790;2023-04-25T18:19:21;3.17;;;1.30;;
51298;SDS011;37382;45.192;9.790;2023-04-25T18:21:49;2.35;;;0.73;;
51298;SDS011;37382;45.192;9.790;2023-04-25T18:24:20;1.97;;;0.80;;
51298;SDS011;37382;45.192;9.790;2023-04-25T18:26:50;1.38;;;0.85;;
51298;SDS011;37382;45.192;9.790;2023-04-25T18:29:18;2.45;;;0.70;;
51298;SDS011;37382;45.192;9.790;2023-04-25T18:31:59;2.90;;;0.57;;
51298;SDS011;37382;45.192;9.790;2023-04-25T18:34:27;0.98;;;0.65;;
51298;SDS011;37382;45.192;9.790;2023-04-25T18:36:55;0.88;;;0.70;;
51298;SDS011;37382;45.192;9.790;2023-04-25T18:39:24;1.15;;;0.63;;
51298;SDS011;37382;45.192;9.790;2023-04-25T18:41:53;5.65;;;0.73;;
51298;SDS011;37382;45.192;9.790;2023-04-25T18:44:33;3.45;;;0.90;;
51298;SDS011;37382;45.192;9.790;2023-04-25T18:47:08;1.40;;;0.88;;
51298;SDS011;37382;45.192;9.790;2023-04-25T18:49:36;1.15;;;0.60;;
51298;SDS011;37382;45.192;9.790;2023-04-25T18:52:05;1.63;;;0.70;;
51298;SDS011;37382;45.192;9.790;2023-04-25T18:54:37;3.17;;;0.93;;
51298;SDS011;37382;45.192;9.790;2023-04-25T18:57:05;1.08;;;0.80;;
51298;SDS011;37382;45.192;9.790;2023-04-25T18:59:32;1.55;;;0.93;;
51298;SDS011;37382;45.192;9.790;2023-04-25T19:02:00;2.88;;;1.30;;
51298;SDS011;37382;45.192;9.790;2023-04-25T19:04:29;2.75;;;1.10;;
51298;SDS011;37382;45.192;9.790;2023-04-25T19:06:58;2.55;;;1.55;;
51298;SDS011;37382;45.192;9.790;2023-04-25T19:09:26;4.13;;;1.10;;
51298;SDS011;37382;45.192;9.790;2023-04-25T19:11:54;5.78;;;1.20;;
51298;SDS011;37382;45.192;9.790;2023-04-25T19:14:21;5.82;;;1.40;;
51298;SDS011;37382;45.192;9.790;2023-04-25T19:16:49;4.05;;;1.52;;
51298;SDS011;37382;45.192;9.790;2023-04-25T19:19:17;3.65;;;1.90;;
51298;SDS011;37382;45.192;9.790;2023-04-25T19:21:44;6.88;;;2.53;;
51298;SDS011;37382;45.192;9.790;2023-04-25T19:24:12;2.50;;;1.67;;